createdAt,value
2018-12-15T00:00:27.555Z,0
2018-12-15T00:01:37.617Z,0
2018-12-15T00:02:47.676Z,0
2018-12-15T00:03:57.494Z,0
2018-12-15T00:05:08.327Z,0
2018-12-15T00:06:18.829Z,0
2018-12-15T00:07:28.944Z,0
2018-12-15T00:08:39.051Z,0
2018-12-15T00:09:49.137Z,0
2018-12-15T00:10:59.454Z,0
2018-12-15T00:12:09.555Z,0
2018-12-15T00:13:19.625Z,0
2018-12-15T00:14:29.738Z,0
2018-12-15T00:15:39.843Z,0
2018-12-15T00:16:49.898Z,0
2018-12-15T00:17:59.686Z,0
2018-12-15T00:19:09.760Z,0
2018-12-15T00:20:19.809Z,0
2018-12-15T00:21:29.865Z,0
2018-12-15T00:22:39.913Z,0
2018-12-15T00:23:49.695Z,0
2018-12-15T00:24:59.763Z,0
2018-12-15T00:26:12.286Z,0
2018-12-15T00:27:22.086Z,0
2018-12-15T00:28:31.962Z,0
2018-12-15T00:29:42.031Z,0
2018-12-15T00:30:52.099Z,0
2018-12-15T00:32:02.167Z,0
2018-12-15T00:33:12.286Z,0
2018-12-15T00:34:22.354Z,0
2018-12-15T00:35:31.945Z,0
2018-12-15T00:36:42.016Z,0
2018-12-15T00:37:52.054Z,0
2018-12-15T00:39:03.406Z,0
2018-12-15T00:40:13.559Z,0
2018-12-15T00:41:23.672Z,0
2018-12-15T00:42:33.720Z,0
2018-12-15T00:43:43.789Z,0
2018-12-15T00:44:53.589Z,0
2018-12-15T00:46:03.657Z,0
2018-12-15T00:47:20.639Z,0
2018-12-15T00:48:30.703Z,0
2018-12-15T00:49:40.767Z,0
2018-12-15T00:50:50.832Z,0
2018-12-15T00:52:00.881Z,0
2018-12-15T00:53:10.485Z,0
2018-12-15T00:54:20.299Z,0
2018-12-15T00:55:30.099Z,0
2018-12-15T00:56:40.157Z,0
2018-12-15T00:57:50.210Z,0
2018-12-15T00:59:00.417Z,0
2018-12-15T01:00:13.489Z,0
2018-12-15T01:01:25.613Z,0
2018-12-15T01:02:35.904Z,0
2018-12-15T01:03:46.014Z,0
2018-12-15T01:04:55.820Z,0
2018-12-15T01:06:06.208Z,0
2018-12-15T01:07:16.284Z,0
2018-12-15T01:08:26.355Z,0
2018-12-15T01:09:36.404Z,0
2018-12-15T01:10:46.450Z,0
2018-12-15T01:11:56.033Z,0
2018-12-15T01:13:05.852Z,0
2018-12-15T01:14:15.894Z,0
2018-12-15T01:15:29.008Z,0
2018-12-15T01:16:41.388Z,0
2018-12-15T01:17:51.513Z,0
2018-12-15T01:19:01.562Z,0
2018-12-15T01:20:11.328Z,0
2018-12-15T01:21:21.141Z,0
2018-12-15T01:22:31.202Z,0
2018-12-15T01:23:41.317Z,0
2018-12-15T01:24:51.377Z,0
2018-12-15T01:26:01.435Z,0
2018-12-15T01:27:11.338Z,0
2018-12-15T01:28:22.532Z,0
2018-12-15T01:29:47.995Z,0
2018-12-15T01:30:58.069Z,0
2018-12-15T01:32:08.127Z,0
2018-12-15T01:33:18.212Z,0
2018-12-15T01:34:30.757Z,0
2018-12-15T01:35:42.978Z,0
2018-12-15T01:36:53.754Z,0
2018-12-15T01:38:05.548Z,0
2018-12-15T01:39:15.734Z,0
2018-12-15T01:40:25.538Z,0
2018-12-15T01:41:35.653Z,0
2018-12-15T01:42:45.662Z,0
2018-12-15T01:43:55.474Z,0
2018-12-15T01:45:05.554Z,0
2018-12-15T01:46:15.713Z,0
2018-12-15T01:47:31.593Z,0
2018-12-15T01:48:41.118Z,0
2018-12-15T01:49:51.182Z,0
2018-12-15T01:51:01.247Z,0
2018-12-15T01:52:11.306Z,0
2018-12-15T01:53:21.465Z,0
2018-12-15T01:54:31.497Z,0
2018-12-15T01:55:41.571Z,0
2018-12-15T01:56:51.621Z,0
2018-12-15T01:58:03.374Z,0
2018-12-15T01:59:13.298Z,0
2018-12-15T02:00:23.149Z,0
2018-12-15T02:01:33.185Z,0
2018-12-15T02:02:43.244Z,0
2018-12-15T02:03:53.300Z,0
2018-12-15T02:05:03.370Z,0
2018-12-15T02:06:12.967Z,0
2018-12-15T02:07:23.084Z,0
2018-12-15T02:08:33.374Z,0
2018-12-15T02:09:43.427Z,0
2018-12-15T02:10:53.503Z,0
2018-12-15T02:12:03.296Z,0
2018-12-15T02:13:13.453Z,0
2018-12-15T02:14:23.519Z,0
2018-12-15T02:15:33.635Z,0
2018-12-15T02:16:43.690Z,0
2018-12-15T02:17:53.757Z,0
2018-12-15T02:19:03.582Z,0
2018-12-15T02:20:13.845Z,0
2018-12-15T02:21:23.990Z,0
2018-12-15T02:22:33.793Z,0
2018-12-15T02:23:43.938Z,0
2018-12-15T02:24:53.752Z,0
2018-12-15T02:26:03.799Z,0
2018-12-15T02:27:13.841Z,0
2018-12-15T02:28:23.962Z,0
2018-12-15T02:29:34.158Z,0
2018-12-15T02:30:44.218Z,0
2018-12-15T02:31:54.301Z,0
2018-12-15T02:33:04.457Z,0
2018-12-15T02:34:14.851Z,0
2018-12-15T02:35:24.915Z,0
2018-12-15T02:36:34.733Z,0
2018-12-15T02:37:44.640Z,0
2018-12-15T02:38:55.176Z,0
2018-12-15T02:40:04.991Z,0
2018-12-15T02:41:15.116Z,0
2018-12-15T02:42:25.195Z,0
2018-12-15T02:43:35.259Z,0
2018-12-15T02:44:45.312Z,0
2018-12-15T02:45:55.375Z,0
2018-12-15T02:47:05.477Z,0
2018-12-15T02:48:15.019Z,0
2018-12-15T02:49:25.150Z,0
2018-12-15T02:50:34.944Z,0
2018-12-15T02:51:44.732Z,0
2018-12-15T02:52:54.528Z,0
2018-12-15T02:54:04.602Z,0
2018-12-15T02:55:14.678Z,0
2018-12-15T02:56:24.747Z,0
2018-12-15T02:57:34.866Z,0
2018-12-15T02:58:44.684Z,0
2018-12-15T02:59:54.804Z,0
2018-12-15T03:01:04.859Z,0
2018-12-15T03:02:14.923Z,0
2018-12-15T03:03:24.731Z,0
2018-12-15T03:35:03.191Z,0
2018-12-15T03:36:13.243Z,0
2018-12-15T03:37:23.298Z,0
2018-12-15T03:38:33.562Z,0
2018-12-15T03:39:43.714Z,0
2018-12-15T03:40:53.996Z,0
2018-12-15T03:42:04.131Z,0
2018-12-15T03:43:13.928Z,0
2018-12-15T03:44:23.748Z,0
2018-12-15T03:45:33.796Z,0
2018-12-15T03:46:43.607Z,0
2018-12-15T03:48:03.137Z,0
2018-12-15T03:49:13.340Z,0
2018-12-15T03:50:22.904Z,0
2018-12-15T03:51:32.959Z,0
2018-12-15T03:52:43.621Z,0
2018-12-15T03:53:54.141Z,0
2018-12-15T03:55:04.193Z,0
2018-12-15T03:56:14.019Z,0
2018-12-15T03:57:24.362Z,0
2018-12-15T03:58:34.421Z,0
2018-12-15T03:59:44.484Z,0
2018-12-15T04:00:54.288Z,0
2018-12-15T04:02:04.378Z,0
2018-12-15T04:03:14.181Z,0
2018-12-15T04:04:24.306Z,0
2018-12-15T04:05:34.124Z,0
2018-12-15T04:06:43.958Z,0
2018-12-15T04:07:53.756Z,0
2018-12-15T04:09:05.713Z,0
2018-12-15T04:10:15.833Z,0
2018-12-15T04:11:25.898Z,0
2018-12-15T04:12:35.959Z,0
2018-12-15T04:13:46.022Z,0
2018-12-15T04:14:56.107Z,0
2018-12-15T04:16:06.213Z,0
2018-12-15T04:17:16.284Z,0
2018-12-15T04:18:26.345Z,0
2018-12-15T04:19:36.511Z,0
2018-12-15T04:20:46.576Z,0
2018-12-15T04:21:56.714Z,0
2018-12-15T04:23:06.787Z,0
2018-12-15T04:24:16.849Z,0
2018-12-15T04:25:26.683Z,0
2018-12-15T04:26:36.720Z,0
2018-12-15T04:27:47.047Z,0
2018-12-15T04:28:57.107Z,0
2018-12-15T04:30:07.235Z,0
2018-12-15T04:31:17.304Z,0
2018-12-15T04:32:28.457Z,0
2018-12-15T04:33:38.564Z,0
2018-12-15T04:34:47.879Z,0
2018-12-15T04:35:57.941Z,0
2018-12-15T04:37:08.758Z,0
2018-12-15T04:38:18.547Z,0
2018-12-15T04:39:28.203Z,0
2018-12-15T04:40:38.283Z,0
2018-12-15T04:41:48.505Z,0
2018-12-15T04:42:58.305Z,0
2018-12-15T04:44:08.372Z,0
2018-12-15T04:45:18.845Z,0
2018-12-15T04:46:28.936Z,0
2018-12-15T04:47:39.016Z,0
2018-12-15T04:48:49.095Z,0
2018-12-15T04:49:58.906Z,0
2018-12-15T04:51:09.003Z,0
2018-12-15T04:52:19.061Z,0
2018-12-15T04:53:28.888Z,0
2018-12-15T04:54:39.173Z,0
2018-12-15T04:55:48.798Z,0
2018-12-15T04:56:58.594Z,0
2018-12-15T04:58:08.720Z,0
2018-12-15T04:59:18.586Z,0
2018-12-15T05:00:28.648Z,0
2018-12-15T05:01:38.754Z,0
2018-12-15T05:02:53.594Z,0
2018-12-15T05:04:03.403Z,0
2018-12-15T05:05:13.463Z,0
2018-12-15T05:06:23.527Z,0
2018-12-15T05:07:33.584Z,0
2018-12-15T05:08:43.686Z,0
2018-12-15T05:09:53.717Z,0
2018-12-15T05:11:03.515Z,0
2018-12-15T05:12:13.587Z,0
2018-12-15T05:13:23.650Z,0
2018-12-15T05:14:33.764Z,0
2018-12-15T05:15:43.580Z,0
2018-12-15T05:16:53.643Z,0
2018-12-15T05:18:03.454Z,0
2018-12-15T05:19:13.535Z,0
2018-12-15T05:20:23.685Z,0
2018-12-15T05:21:33.753Z,0
2018-12-15T05:22:43.810Z,0
2018-12-15T05:23:53.862Z,0
2018-12-15T05:25:03.918Z,0
2018-12-15T05:26:14.009Z,0
2018-12-15T05:27:23.833Z,0
2018-12-15T05:28:34.138Z,0
2018-12-15T05:29:44.300Z,0
2018-12-15T05:30:54.085Z,0
2018-12-15T05:32:04.690Z,0
2018-12-15T05:33:14.974Z,0
2018-12-15T05:34:25.165Z,0
2018-12-15T05:35:35.022Z,0
2018-12-15T05:36:44.966Z,0
2018-12-15T05:37:55.084Z,0
2018-12-15T05:39:08.192Z,0
2018-12-15T05:40:18.265Z,0
2018-12-15T05:41:28.330Z,0
2018-12-15T05:42:38.384Z,0
2018-12-15T05:43:48.434Z,0
2018-12-15T05:44:58.228Z,0
2018-12-15T05:46:08.039Z,0
2018-12-15T05:47:18.091Z,0
2018-12-15T05:48:34.675Z,0
2018-12-15T05:49:44.770Z,0
2018-12-15T05:50:54.848Z,0
2018-12-15T05:52:04.903Z,0
2018-12-15T05:53:14.952Z,0
2018-12-15T05:54:25.091Z,0
2018-12-15T05:55:35.211Z,0
2018-12-15T05:56:45.301Z,0
2018-12-15T05:57:55.373Z,0
2018-12-15T05:59:05.441Z,0
2018-12-15T06:00:15.483Z,0
2018-12-15T06:01:25.570Z,0
2018-12-15T06:02:35.634Z,0
2018-12-15T06:03:45.689Z,0
2018-12-15T06:04:55.771Z,0
2018-12-15T06:06:05.641Z,0
2018-12-15T06:07:15.445Z,0
2018-12-15T06:08:25.741Z,0
2018-12-15T06:09:35.799Z,0
2018-12-15T06:10:45.908Z,0
2018-12-15T06:11:55.691Z,0
2018-12-15T06:13:05.514Z,0
2018-12-15T06:14:15.333Z,0
2018-12-15T06:15:25.369Z,0
2018-12-15T06:16:35.160Z,0
2018-12-15T06:17:45.215Z,0
2018-12-15T06:18:55.380Z,0
2018-12-15T06:20:05.348Z,0
2018-12-15T06:21:15.500Z,0
2018-12-15T06:22:25.555Z,0
2018-12-15T06:23:35.932Z,0
2018-12-15T06:24:46.019Z,0
2018-12-15T06:25:56.069Z,0
2018-12-15T06:27:06.192Z,0
2018-12-15T06:28:16.244Z,0
2018-12-15T06:29:26.056Z,0
2018-12-15T06:30:35.894Z,0
2018-12-15T06:31:45.972Z,0
2018-12-15T06:32:56.030Z,0
2018-12-15T06:34:06.091Z,0
2018-12-15T06:35:16.153Z,0
2018-12-15T06:36:26.298Z,0
2018-12-15T06:37:36.349Z,0
2018-12-15T06:38:46.399Z,0
2018-12-15T06:39:56.441Z,0
2018-12-15T06:41:06.362Z,0
2018-12-15T06:42:16.419Z,0
2018-12-15T06:43:26.493Z,0
2018-12-15T06:44:36.548Z,5
2018-12-15T06:45:46.376Z,5
2018-12-15T06:46:56.170Z,5
2018-12-15T06:48:07.787Z,5
2018-12-15T06:49:17.892Z,5
2018-12-15T06:50:27.697Z,5
2018-12-15T06:51:37.512Z,5
2018-12-15T06:52:47.590Z,5
2018-12-15T06:53:57.705Z,5
2018-12-15T06:55:08.664Z,5
2018-12-15T06:56:18.745Z,10
2018-12-15T06:57:28.543Z,10
2018-12-15T06:58:38.334Z,10
2018-12-15T06:59:48.396Z,10
2018-12-15T07:00:58.478Z,10
2018-12-15T07:02:08.529Z,10
2018-12-15T07:03:18.631Z,10
2018-12-15T07:04:28.698Z,15
2018-12-15T07:05:38.808Z,15
2018-12-15T07:06:49.342Z,15
2018-12-15T07:07:59.393Z,15
2018-12-15T07:09:08.927Z,15
2018-12-15T07:10:18.748Z,15
2018-12-15T07:11:28.905Z,15
2018-12-15T07:12:38.923Z,20
2018-12-15T07:13:48.778Z,20
2018-12-15T07:14:58.576Z,20
2018-12-15T07:16:08.637Z,20
2018-12-15T07:17:18.783Z,20
2018-12-15T07:18:28.842Z,20
2018-12-15T07:19:38.903Z,20
2018-12-15T07:20:48.966Z,25
2018-12-15T07:21:59.037Z,25
2018-12-15T07:23:09.109Z,25
2018-12-15T07:24:19.176Z,25
2018-12-15T07:25:29.523Z,30
2018-12-15T07:26:39.585Z,30
2018-12-15T07:27:49.661Z,30
2018-12-15T07:28:59.847Z,30
2018-12-15T07:30:13.183Z,30
2018-12-15T07:31:23.258Z,30
2018-12-15T07:32:33.065Z,30
2018-12-15T07:33:42.869Z,30
2018-12-15T07:34:52.968Z,30
2018-12-15T07:36:03.797Z,30
2018-12-15T07:37:13.598Z,30
2018-12-15T07:38:23.732Z,30
2018-12-15T07:39:33.773Z,35
2018-12-15T07:40:43.906Z,35
2018-12-15T07:41:54.202Z,35
2018-12-15T07:43:04.014Z,35
2018-12-15T07:44:14.276Z,35
2018-12-15T07:45:24.357Z,40
2018-12-15T07:46:34.881Z,40
2018-12-15T07:47:44.961Z,40
2018-12-15T07:49:00.971Z,40
2018-12-15T07:50:11.076Z,45
2018-12-15T07:51:21.161Z,45
2018-12-15T07:52:31.007Z,45
2018-12-15T07:53:41.088Z,45
2018-12-15T07:54:51.145Z,45
2018-12-15T07:56:01.200Z,50
2018-12-15T07:57:11.312Z,50
2018-12-15T07:58:21.382Z,50
2018-12-15T07:59:31.463Z,50
2018-12-15T08:00:41.958Z,50
2018-12-15T08:01:51.755Z,50
2018-12-15T08:03:01.610Z,50
2018-12-15T08:04:11.743Z,50
2018-12-15T08:05:21.826Z,50
2018-12-15T08:06:31.893Z,50
2018-12-15T08:07:41.964Z,50
2018-12-15T08:08:52.027Z,55
2018-12-15T08:10:03.409Z,55
2018-12-15T08:11:12.988Z,55
2018-12-15T08:12:22.580Z,55
2018-12-15T08:13:32.649Z,60
2018-12-15T08:14:43.163Z,60
2018-12-15T08:15:53.294Z,60
2018-12-15T08:17:03.815Z,65
2018-12-15T08:18:13.152Z,65
2018-12-15T08:19:23.038Z,65
2018-12-15T08:20:32.873Z,65
2018-12-15T08:21:42.926Z,70
2018-12-15T08:22:52.729Z,70
2018-12-15T08:24:02.542Z,70
2018-12-15T08:25:12.357Z,75
2018-12-15T08:26:22.414Z,75
2018-12-15T08:27:32.935Z,75
2018-12-15T08:28:43.007Z,80
2018-12-15T08:29:53.064Z,80
2018-12-15T08:31:03.150Z,80
2018-12-15T08:32:13.282Z,85
2018-12-15T08:33:23.350Z,80
2018-12-15T08:34:33.161Z,85
2018-12-15T08:35:42.719Z,85
2018-12-15T08:36:52.774Z,85
2018-12-15T08:38:05.280Z,90
2018-12-15T08:39:15.135Z,90
2018-12-15T08:40:25.209Z,90
2018-12-15T08:41:34.780Z,90
2018-12-15T08:42:44.839Z,90
2018-12-15T08:43:54.673Z,90
2018-12-15T08:45:04.990Z,95
2018-12-15T08:46:14.838Z,95
2018-12-15T08:47:24.933Z,95
2018-12-15T08:48:35.000Z,95
2018-12-15T08:49:44.996Z,95
2018-12-15T08:50:55.083Z,95
2018-12-15T08:52:05.481Z,100
2018-12-15T08:53:15.386Z,100
2018-12-15T08:54:25.190Z,105
2018-12-15T08:55:35.264Z,110
2018-12-15T08:56:45.405Z,115
2018-12-15T08:57:55.472Z,110
2018-12-15T08:59:05.580Z,115
2018-12-15T09:00:15.381Z,120
2018-12-15T09:01:25.456Z,120
2018-12-15T09:02:35.595Z,125
2018-12-15T09:03:45.648Z,130
2018-12-15T09:04:55.727Z,130
2018-12-15T09:06:05.808Z,130
2018-12-15T09:07:16.627Z,130
2018-12-15T09:08:27.097Z,130
2018-12-15T09:09:37.163Z,130
2018-12-15T09:10:46.979Z,130
2018-12-15T09:11:57.058Z,130
2018-12-15T09:13:07.381Z,135
2018-12-15T09:14:17.446Z,135
2018-12-15T09:15:27.527Z,135
2018-12-15T09:16:37.667Z,135
2018-12-15T09:17:47.729Z,135
2018-12-15T09:18:57.776Z,130
2018-12-15T09:20:07.830Z,130
2018-12-15T09:21:17.670Z,135
2018-12-15T09:22:27.583Z,135
2018-12-15T09:23:37.392Z,135
2018-12-15T09:24:47.504Z,135
2018-12-15T09:25:57.369Z,135
2018-12-15T09:27:08.496Z,135
2018-12-15T09:28:18.622Z,135
2018-12-15T09:29:28.688Z,130
2018-12-15T09:30:38.813Z,130
2018-12-15T09:31:48.898Z,130
2018-12-15T09:32:58.958Z,125
2018-12-15T09:34:09.046Z,125
2018-12-15T09:35:19.108Z,125
2018-12-15T09:36:28.923Z,120
2018-12-15T09:37:39.227Z,120
2018-12-15T09:38:49.308Z,120
2018-12-15T09:39:59.398Z,115
2018-12-15T09:41:09.511Z,110
2018-12-15T09:42:19.587Z,105
2018-12-15T09:43:29.439Z,100
2018-12-15T09:44:39.526Z,105
2018-12-15T09:45:49.361Z,105
2018-12-15T09:46:59.661Z,110
2018-12-15T09:48:09.737Z,110
2018-12-15T09:49:25.132Z,110
2018-12-15T09:50:35.447Z,115
2018-12-15T09:51:45.579Z,115
2018-12-15T09:52:55.652Z,115
2018-12-15T09:54:07.095Z,115
2018-12-15T09:55:16.941Z,115
2018-12-15T09:56:26.994Z,120
2018-12-15T09:57:37.096Z,120
2018-12-15T09:58:47.236Z,120
2018-12-15T09:59:57.336Z,125
2018-12-15T10:01:07.575Z,125
2018-12-15T10:02:17.635Z,125
2018-12-15T10:03:27.787Z,125
2018-12-15T10:04:37.874Z,130
2018-12-15T10:05:47.960Z,130
2018-12-15T10:06:58.370Z,130
2018-12-15T10:08:10.615Z,130
2018-12-15T10:09:20.580Z,135
2018-12-15T10:10:30.649Z,135
2018-12-15T10:11:40.729Z,140
2018-12-15T10:12:50.806Z,140
2018-12-15T10:14:02.490Z,145
2018-12-15T10:15:12.547Z,150
2018-12-15T10:16:22.390Z,150
2018-12-15T10:17:32.450Z,155
2018-12-15T10:18:42.512Z,160
2018-12-15T10:19:52.648Z,160
2018-12-15T10:21:02.765Z,160
2018-12-15T10:22:12.304Z,155
2018-12-15T10:23:22.371Z,150
2018-12-15T10:24:32.489Z,150
2018-12-15T10:25:42.293Z,150
2018-12-15T10:26:52.122Z,155
2018-12-15T10:28:02.222Z,155
2018-12-15T10:29:12.293Z,150
2018-12-15T10:30:22.353Z,150
2018-12-15T10:31:32.519Z,150
2018-12-15T10:32:42.639Z,150
2018-12-15T10:33:52.703Z,155
2018-12-15T10:35:02.784Z,160
2018-12-15T10:36:12.869Z,160
2018-12-15T10:37:22.983Z,155
2018-12-15T10:38:33.123Z,155
2018-12-15T10:39:42.987Z,155
2018-12-15T10:40:52.799Z,155
2018-12-15T10:42:02.933Z,155
2018-12-15T10:43:13.016Z,160
2018-12-15T10:44:23.176Z,160
2018-12-15T10:45:33.238Z,165
2018-12-15T10:46:43.304Z,160
2018-12-15T10:47:53.566Z,155
2018-12-15T10:49:03.653Z,165
2018-12-15T10:50:13.724Z,165
2018-12-15T10:51:23.793Z,165
2018-12-15T10:52:33.703Z,165
2018-12-15T10:53:43.774Z,165
2018-12-15T10:54:53.840Z,160
2018-12-15T10:56:03.986Z,150
2018-12-15T10:57:14.076Z,145
2018-12-15T10:58:24.412Z,145
2018-12-15T10:59:34.516Z,145
2018-12-15T11:00:44.582Z,145
2018-12-15T11:01:54.655Z,145
2018-12-15T11:03:04.744Z,150
2018-12-15T11:04:14.835Z,145
2018-12-15T11:05:24.929Z,135
2018-12-15T11:06:35.004Z,135
2018-12-15T11:07:45.087Z,130
2018-12-15T11:08:55.163Z,130
2018-12-15T11:10:07.949Z,130
2018-12-15T11:11:17.753Z,130
2018-12-15T11:12:27.817Z,125
2018-12-15T11:13:37.885Z,120
2018-12-15T11:14:47.961Z,115
2018-12-15T11:15:57.799Z,105
2018-12-15T11:17:10.519Z,105
2018-12-15T11:18:20.603Z,105
2018-12-15T11:19:36.975Z,105
2018-12-15T11:20:47.380Z,100
2018-12-15T11:21:57.168Z,95
2018-12-15T11:23:06.988Z,85
2018-12-15T11:24:17.082Z,80
2018-12-15T11:25:27.197Z,85
2018-12-15T11:26:37.245Z,80
2018-12-15T11:27:48.502Z,75
2018-12-15T11:28:58.627Z,75
2018-12-15T11:30:08.702Z,80
2018-12-15T11:31:18.986Z,80
2018-12-15T11:32:29.056Z,80
2018-12-15T11:33:38.866Z,75
2018-12-15T11:34:48.984Z,75
2018-12-15T11:35:59.051Z,70
2018-12-15T11:37:08.834Z,60
2018-12-15T11:38:18.892Z,65
2018-12-15T11:39:28.958Z,65
2018-12-15T11:40:39.036Z,60
2018-12-15T11:41:48.876Z,60
2018-12-15T11:42:58.953Z,65
2018-12-15T11:44:08.510Z,60
2018-12-15T11:45:18.568Z,65
2018-12-15T11:46:28.706Z,65
2018-12-15T11:47:38.777Z,70
2018-12-15T11:48:48.907Z,75
2018-12-15T11:49:58.986Z,85
2018-12-15T11:51:09.125Z,90
2018-12-15T11:52:19.284Z,100
2018-12-15T11:53:29.356Z,100
2018-12-15T11:54:39.722Z,100
2018-12-15T11:55:49.588Z,100
2018-12-15T11:56:59.690Z,100
2018-12-15T11:58:13.135Z,105
2018-12-15T11:59:23.212Z,110
2018-12-15T12:00:33.053Z,115
2018-12-15T12:01:43.129Z,120
2018-12-15T12:02:53.193Z,125
2018-12-15T12:04:04.870Z,120
2018-12-15T12:05:14.946Z,115
2018-12-15T12:06:25.044Z,110
2018-12-15T12:07:35.334Z,100
2018-12-15T12:08:45.384Z,95
2018-12-15T12:09:55.816Z,95
2018-12-15T12:11:06.244Z,95
2018-12-15T12:12:16.310Z,95
2018-12-15T12:13:25.876Z,95
2018-12-15T12:14:35.982Z,95
2018-12-15T12:15:45.793Z,95
2018-12-15T12:16:56.158Z,95
2018-12-15T12:18:07.142Z,90
2018-12-15T12:19:17.426Z,90
2018-12-15T12:20:27.227Z,90
2018-12-15T12:21:37.095Z,90
2018-12-15T12:22:47.172Z,90
2018-12-15T12:23:57.230Z,90
2018-12-15T12:25:07.316Z,90
2018-12-15T12:26:17.390Z,90
2018-12-15T12:27:27.216Z,90
2018-12-15T12:28:37.307Z,90
2018-12-15T12:29:47.141Z,85
2018-12-15T12:30:57.203Z,80
2018-12-15T12:32:07.015Z,80
2018-12-15T12:33:17.221Z,75
2018-12-15T12:34:27.311Z,65
2018-12-15T12:35:37.386Z,70
2018-12-15T12:36:47.447Z,65
2018-12-15T12:37:57.765Z,70
2018-12-15T12:39:10.821Z,70
2018-12-15T12:40:20.877Z,70
2018-12-15T12:41:30.954Z,75
2018-12-15T12:42:41.026Z,80
2018-12-15T12:43:50.854Z,80
2018-12-15T12:45:00.920Z,85
2018-12-15T12:46:11.020Z,90
2018-12-15T12:47:21.111Z,90
2018-12-15T12:48:31.203Z,90
2018-12-15T12:49:41.016Z,90
2018-12-15T12:50:51.149Z,95
2018-12-15T12:52:01.280Z,95
2018-12-15T12:53:11.366Z,90
2018-12-15T12:54:21.457Z,90
2018-12-15T12:55:31.769Z,100
2018-12-15T12:56:41.839Z,100
2018-12-15T12:57:51.890Z,100
2018-12-15T12:59:03.668Z,95
2018-12-15T13:00:13.728Z,95
2018-12-15T13:01:23.816Z,95
2018-12-15T13:02:34.144Z,95
2018-12-15T13:03:43.985Z,90
2018-12-15T13:04:54.066Z,85
2018-12-15T13:06:04.144Z,80
2018-12-15T13:07:14.216Z,80
2018-12-15T13:08:24.373Z,75
2018-12-15T13:09:34.455Z,70
2018-12-15T13:10:44.251Z,65
2018-12-15T13:11:54.330Z,60
2018-12-15T13:13:03.896Z,60
2018-12-15T13:14:13.995Z,55
2018-12-15T13:15:24.367Z,55
2018-12-15T13:16:34.189Z,50
2018-12-15T13:17:44.274Z,45
2018-12-15T13:18:54.339Z,45
2018-12-15T13:20:10.819Z,45
2018-12-15T13:21:20.632Z,45
2018-12-15T13:22:30.751Z,45
2018-12-15T13:23:40.576Z,45
2018-12-15T13:24:50.641Z,45
2018-12-15T13:26:00.780Z,50
2018-12-15T13:27:10.607Z,50
2018-12-15T13:28:20.703Z,45
2018-12-15T13:29:30.896Z,45
2018-12-15T13:30:42.060Z,45
2018-12-15T13:31:52.168Z,45
2018-12-15T13:33:02.589Z,45
2018-12-15T13:34:12.673Z,40
2018-12-15T13:35:22.766Z,35
2018-12-15T13:36:32.813Z,35
2018-12-15T13:37:42.608Z,30
2018-12-15T13:38:52.425Z,25
2018-12-15T13:40:03.138Z,25
2018-12-15T13:41:12.956Z,20
2018-12-15T13:42:23.029Z,20
2018-12-15T13:43:33.098Z,20
2018-12-15T13:44:43.187Z,20
2018-12-15T13:45:53.003Z,20
2018-12-15T13:47:04.026Z,20
2018-12-15T13:48:13.829Z,15
2018-12-15T13:49:23.908Z,15
2018-12-15T13:50:33.987Z,15
2018-12-15T13:51:43.772Z,10
2018-12-15T13:52:53.864Z,10
2018-12-15T13:54:03.952Z,10
2018-12-15T13:55:14.076Z,10
2018-12-15T13:56:24.153Z,10
2018-12-15T13:57:33.697Z,10
2018-12-15T13:58:43.512Z,10
2018-12-15T13:59:53.595Z,10
2018-12-15T14:01:03.738Z,10
2018-12-15T14:02:13.812Z,10
2018-12-15T14:03:23.897Z,10
2018-12-15T14:04:33.984Z,10
2018-12-15T14:05:44.052Z,10
2018-12-15T14:06:54.006Z,10
2018-12-15T14:08:04.216Z,5
2018-12-15T14:09:14.310Z,5
2018-12-15T14:10:24.365Z,5
2018-12-15T14:11:33.919Z,5
2018-12-15T14:12:45.081Z,5
2018-12-15T14:13:55.242Z,5
2018-12-15T14:15:05.308Z,5
2018-12-15T14:16:15.387Z,5
2018-12-15T14:17:25.484Z,5
2018-12-15T14:18:35.620Z,5
2018-12-15T14:19:45.890Z,5
2018-12-15T14:20:55.964Z,5
2018-12-15T14:22:06.159Z,5
2018-12-15T14:23:15.991Z,5
2018-12-15T14:24:26.167Z,5
2018-12-15T14:25:36.246Z,5
2018-12-15T14:26:46.054Z,5
2018-12-15T14:27:55.897Z,5
2018-12-15T14:29:05.735Z,5
2018-12-15T14:30:15.550Z,5
2018-12-15T14:31:25.651Z,5
2018-12-15T14:32:35.486Z,5
2018-12-15T14:33:45.753Z,5
2018-12-15T14:34:55.849Z,5
2018-12-15T14:36:05.923Z,5
2018-12-15T14:37:15.984Z,5
2018-12-15T14:38:26.071Z,5
2018-12-15T14:39:36.117Z,5
2018-12-15T14:40:46.234Z,5
2018-12-15T14:41:56.541Z,0
2018-12-15T14:43:06.641Z,0
2018-12-15T14:44:16.715Z,0
2018-12-15T14:45:26.520Z,0
2018-12-15T14:46:36.618Z,0
2018-12-15T14:47:46.697Z,0
2018-12-15T14:48:56.769Z,0
2018-12-15T14:50:08.526Z,0
2018-12-15T14:51:18.585Z,0
2018-12-15T14:52:28.702Z,0
2018-12-15T14:53:38.774Z,0
2018-12-15T14:54:48.620Z,0
2018-12-15T14:55:58.970Z,0
2018-12-15T14:57:08.816Z,0
2018-12-15T14:58:18.754Z,0
2018-12-15T14:59:28.955Z,0
2018-12-15T15:00:39.024Z,0
2018-12-15T15:01:49.355Z,0
2018-12-15T15:02:59.444Z,0
2018-12-15T15:04:09.761Z,0
2018-12-15T15:05:19.646Z,0
2018-12-15T15:06:30.834Z,0
2018-12-15T15:07:40.912Z,0
2018-12-15T15:08:50.994Z,0
2018-12-15T15:10:01.144Z,0
2018-12-15T15:11:11.245Z,0
2018-12-15T15:12:21.330Z,0
2018-12-15T15:13:37.081Z,0
2018-12-15T15:14:47.168Z,0
2018-12-15T15:15:57.315Z,0
2018-12-15T15:17:07.397Z,0
2018-12-15T15:18:17.489Z,0
2018-12-15T15:19:27.319Z,0
2018-12-15T15:20:39.595Z,0
2018-12-15T15:21:49.679Z,0
2018-12-15T15:22:59.511Z,0
2018-12-15T15:24:09.581Z,0
2018-12-15T15:25:19.458Z,0
2018-12-15T15:26:29.328Z,0
2018-12-15T15:27:39.444Z,0
2018-12-15T15:28:49.345Z,0
2018-12-15T15:29:59.434Z,0
2018-12-15T15:31:09.251Z,0
2018-12-15T15:32:19.337Z,0
2018-12-15T15:33:29.399Z,0
2018-12-15T15:34:39.460Z,0
2018-12-15T15:35:49.558Z,0
2018-12-15T15:36:59.646Z,0
2018-12-15T15:38:09.703Z,0
2018-12-15T15:39:19.798Z,0
2018-12-15T15:40:29.869Z,0
2018-12-15T15:41:39.699Z,0
2018-12-15T15:42:49.755Z,0
2018-12-15T15:43:59.807Z,0
2018-12-15T15:45:10.000Z,0
2018-12-15T15:46:19.826Z,0
2018-12-15T15:47:29.922Z,0
2018-12-15T15:48:40.017Z,0
2018-12-15T15:49:50.101Z,0
2018-12-15T15:51:00.389Z,0
2018-12-15T15:52:10.475Z,0
2018-12-15T15:53:20.271Z,0
2018-12-15T15:54:30.791Z,0
2018-12-15T15:55:40.589Z,0
2018-12-15T15:56:50.750Z,0
2018-12-15T15:58:02.271Z,0
2018-12-15T15:59:12.869Z,0
2018-12-15T16:00:22.934Z,0
2018-12-15T16:01:32.992Z,0
2018-12-15T16:02:42.902Z,0
2018-12-15T16:03:53.049Z,0
2018-12-15T16:05:04.601Z,0
2018-12-15T16:06:14.711Z,0
2018-12-15T16:07:24.890Z,0
2018-12-15T16:08:34.515Z,0
2018-12-15T16:09:49.835Z,0
2018-12-15T16:11:00.161Z,0
2018-12-15T16:12:10.271Z,0
2018-12-15T16:13:20.335Z,0
2018-12-15T16:14:30.494Z,0
2018-12-15T16:15:40.577Z,0
2018-12-15T16:16:50.675Z,0
2018-12-15T16:18:00.762Z,0
2018-12-15T16:19:10.907Z,0
2018-12-15T16:20:21.051Z,0
2018-12-15T16:21:30.921Z,0
2018-12-15T16:22:41.040Z,0
2018-12-15T16:23:51.115Z,0
2018-12-15T16:25:01.309Z,0
2018-12-15T16:26:11.524Z,0
2018-12-15T16:27:21.607Z,0
2018-12-15T16:28:31.676Z,0
2018-12-15T16:29:41.763Z,0
2018-12-15T16:30:51.839Z,0
2018-12-15T16:32:01.980Z,0
2018-12-15T16:33:12.159Z,0
2018-12-15T16:34:22.246Z,0
2018-12-15T16:35:32.353Z,0
2018-12-15T16:36:42.428Z,0
2018-12-15T16:37:52.552Z,0
2018-12-15T16:39:03.523Z,0
2018-12-15T16:40:13.387Z,0
2018-12-15T16:41:23.507Z,0
2018-12-15T16:42:33.318Z,0
2018-12-15T16:43:45.569Z,0
2018-12-15T16:44:55.387Z,0
2018-12-15T16:46:06.197Z,0
2018-12-15T16:47:16.370Z,0
2018-12-15T16:48:26.441Z,0
2018-12-15T16:49:36.568Z,0
2018-12-15T16:50:52.447Z,0
2018-12-15T16:52:03.639Z,0
2018-12-15T16:53:13.744Z,0
2018-12-15T16:54:23.831Z,0
2018-12-15T16:55:35.259Z,0
2018-12-15T16:56:45.346Z,0
2018-12-15T16:57:55.268Z,0
2018-12-15T16:59:08.380Z,0
2018-12-15T17:00:18.467Z,0
2018-12-15T17:01:28.569Z,0
2018-12-15T17:02:38.638Z,0
2018-12-15T17:03:48.711Z,0
2018-12-15T17:04:58.782Z,0
2018-12-15T17:06:08.911Z,0
2018-12-15T17:07:19.860Z,0
2018-12-15T17:08:30.002Z,0
2018-12-15T17:09:40.058Z,0
2018-12-15T17:10:50.168Z,0
2018-12-15T17:12:03.247Z,0
2018-12-15T17:13:13.336Z,0
2018-12-15T17:14:23.437Z,0
2018-12-15T17:15:33.488Z,0
2018-12-15T17:16:43.579Z,0
2018-12-15T17:17:53.396Z,0
2018-12-15T17:19:03.558Z,0
2018-12-15T17:20:13.641Z,0
2018-12-15T17:21:23.728Z,0
2018-12-15T17:22:33.790Z,0
2018-12-15T17:23:43.890Z,0
2018-12-15T17:24:53.999Z,0
2018-12-15T17:26:04.862Z,0
2018-12-15T17:27:14.685Z,0